메인 페이지
METAR-TAF:

METAR-TAF

공항 :

엘라지, 터키

위도: 38-36N, 경도: 039-17E, 고도: 902m

현재 날씨관측

예보는 55분 전, 16:50시(UTC)에 발표되었습니다.
남서3kt
온도 6°C
습도 81%
기압 1014 hPa
시정 10km 이상
고도 3500ft 상공 구름 보통
고도 10000ft 상공 구름 많음

METAR: LTCA 241650Z 23003KT 9999 SCT035 BKN100 06/03 Q1014 NOSIG

시각: 20:45 (17:45 UTC)

예보

예보는 1 시간 5분 전, 16:40시(UTC)에 발표되었습니다.
예보 대상 시간: 24일 18시부터 25일 03시까지 (UTC)
여러 방향의 바람 2kt
시정 10km 이상
고도 3500ft 상공 구름 보통
고도 10000ft 상공 구름 많음
전환 중
24일 22시부터 25일 01시까지 (UTC)
시정 10km 이상
1500m 미만 상공 구름 및 적란운 없음

TAF: LTCA 241640Z 2418/2503 VRB02KT 9999 SCT035 BKN100 BECMG 2422/2501 CAVOK

4,000개 이상의 공항 관측 자료 및 예보 (METAR 및 TAF 보고).

지도상에서 검색 가능한 기상관측소가 노란 점과 빨간 점으로 표시되어 있습니다.

기상관측소 명을 보려면 표시 위로 마우스를 이동하세요.

날씨 관측과 예보를 보려면 클릭하세요.

지도 변경 : 확대하려면 엑스 표시가 있는 녹색 버튼, 축소하려면 빼기 표시가 있는 녹색 버튼, 다음 페이지의 지도를 보려면 녹색 화살표를 클릭하세요.


METAR-TAF: